Time;durP1;ratioP1;P1;durP2;ratioP2;P2;SDS_P1;SDS_P2;PMS_P1;PMS_P2;Temp;Humidity;BMP_temperature;BMP_pressure;BME280_temperature;BME280_humidity;BME280_pressure;Samples;Min_cycle;Max_cycle;Signal;HPM_P1;HPM_P2
2021/09/20 00:01:07;;;;;;;9.10;5.25;;;;;;;11.21;99.28;100006.41;5096411;28;20051;-77
2021/09/20 00:03:37;;;;;;;8.57;5.65;;;;;;;11.16;99.70;100008.50;5114724;28;20180;-77
2021/09/20 00:06:06;;;;;;;8.98;5.70;;;;;;;11.13;99.93;100006.03;5114686;28;20039;-78
2021/09/20 00:08:35;;;;;;;9.50;5.70;;;;;;;11.34;98.72;100004.59;5114972;28;20050;-74
2021/09/20 00:11:03;;;;;;;8.68;5.47;;;;;;;11.28;98.52;100002.34;5114372;28;20040;-75
2021/09/20 00:13:32;;;;;;;7.50;4.75;;;;;;;11.35;98.52;100002.78;5114601;28;20043;-75
2021/09/20 00:16:02;;;;;;;6.85;4.63;;;;;;;11.36;98.35;99994.66;5114234;28;20035;-75
2021/09/20 00:18:31;;;;;;;8.45;5.15;;;;;;;11.28;98.80;100004.16;5114376;28;20051;-74
2021/09/20 00:20:59;;;;;;;8.15;5.30;;;;;;;11.24;98.95;100008.84;5114385;28;20054;-75
2021/09/20 00:23:28;;;;;;;7.85;4.85;;;;;;;11.35;98.61;100006.31;5114578;28;20039;-75
2021/09/20 00:25:58;;;;;;;7.35;4.95;;;;;;;11.38;98.25;100000.75;5114496;28;20046;-74
2021/09/20 00:28:26;;;;;;;8.48;5.20;;;;;;;11.62;97.41;100011.59;5114207;28;20112;-72
2021/09/20 00:30:55;;;;;;;7.88;5.13;;;;;;;11.75;95.63;100004.44;5114499;28;20082;-75
2021/09/20 00:33:23;;;;;;;9.15;5.65;;;;;;;11.67;96.11;99997.91;5113823;28;20048;-75
2021/09/20 00:35:52;;;;;;;7.07;4.72;;;;;;;11.86;94.89;100002.88;5114084;28;20427;-75
2021/09/20 00:38:20;;;;;;;7.40;5.30;;;;;;;11.81;95.12;100011.25;5113786;28;20444;-75
2021/09/20 00:40:48;;;;;;;8.48;5.10;;;;;;;11.71;95.60;100000.28;5113992;28;20401;-75
2021/09/20 00:43:19;;;;;;;9.27;5.28;;;;;;;11.90;94.77;99991.91;5113792;28;20046;-78
2021/09/20 00:45:47;;;;;;;8.23;5.10;;;;;;;11.82;95.51;99998.72;5114279;28;20044;-77
2021/09/20 00:48:15;;;;;;;7.82;5.30;;;;;;;11.72;96.22;99995.81;5113539;28;20108;-78
2021/09/20 00:50:44;;;;;;;8.90;5.28;;;;;;;11.86;95.17;99998.41;5113995;28;20143;-75
2021/09/20 00:53:12;;;;;;;8.18;4.93;;;;;;;11.85;95.36;99987.81;5113602;28;20505;-75
2021/09/20 00:55:44;;;;;;;8.38;5.15;;;;;;;11.99;94.59;99983.22;5113674;28;20432;-73
2021/09/20 00:58:13;;;;;;;8.07;5.38;;;;;;;11.94;94.76;99985.34;5113745;28;20379;-73
2021/09/20 01:00:45;;;;;;;9.40;5.32;;;;;;;11.84;95.16;99981.63;5114124;28;20050;-73
2021/09/20 01:03:14;;;;;;;9.05;4.85;;;;;;;11.90;95.54;99986.56;5113442;28;20051;-74
2021/09/20 01:05:42;;;;;;;7.75;4.72;;;;;;;11.91;95.25;99984.72;5113668;28;20486;-73
2021/09/20 01:08:10;;;;;;;7.47;5.03;;;;;;;11.81;95.03;99976.50;5113261;28;20039;-75
2021/09/20 01:10:39;;;;;;;8.75;5.50;;;;;;;11.85;95.16;99986.00;5113556;28;20071;-76
2021/09/20 01:13:07;;;;;;;7.03;4.80;;;;;;;11.89;94.29;99990.19;5113264;28;20039;-76
2021/09/20 01:15:35;;;;;;;8.85;5.60;;;;;;;11.75;95.41;99987.56;5095467;28;20052;-76
2021/09/20 01:18:05;;;;;;;8.15;5.28;;;;;;;11.69;95.83;99996.88;5113535;28;20036;-79
2021/09/20 01:20:33;;;;;;;8.57;4.78;;;;;;;11.63;96.01;99991.09;5113348;28;20410;-78
2021/09/20 01:23:04;;;;;;;8.05;4.57;;;;;;;11.78;94.99;99990.06;5113624;28;20051;-77
2021/09/20 01:25:33;;;;;;;6.70;4.60;;;;;;;12.08;93.30;99979.06;5113401;28;20047;-77
2021/09/20 01:28:02;;;;;;;7.32;5.07;;;;;;;12.00;93.94;99987.63;5113626;28;20046;-77
2021/09/20 01:30:30;;;;;;;7.82;4.82;;;;;;;11.77;95.19;99980.28;5113282;28;20104;-77
2021/09/20 01:32:59;;;;;;;8.50;5.50;;;;;;;11.80;94.65;99980.13;5113580;28;20040;-77
2021/09/20 01:35:29;;;;;;;7.78;5.00;;;;;;;11.90;93.88;99986.56;5113066;28;20044;-77
2021/09/20 01:37:57;;;;;;;7.32;4.88;;;;;;;11.87;94.37;99976.09;5094904;28;20059;-75
2021/09/20 01:40:28;;;;;;;6.30;4.43;;;;;;;11.81;94.37;99978.31;5112316;28;20047;-76
2021/09/20 01:42:56;;;;;;;7.25;4.60;;;;;;;11.97;93.79;99974.47;5113486;28;20040;-75
2021/09/20 01:45:26;;;;;;;8.02;5.28;;;;;;;11.86;94.30;99970.81;5112872;28;20046;-75
2021/09/20 01:47:55;;;;;;;6.63;4.57;;;;;;;11.92;93.78;99978.41;5113051;28;20036;-75
2021/09/20 01:50:23;;;;;;;7.35;4.45;;;;;;;11.94;93.71;99977.34;5112880;28;20482;-75
2021/09/20 01:52:52;;;;;;;7.93;4.72;;;;;;;11.99;93.25;99972.53;5113229;28;20067;-73
2021/09/20 01:55:21;;;;;;;7.28;4.53;;;;;;;12.00;93.39;99973.41;5112844;28;20039;-73
2021/09/20 01:57:51;;;;;;;6.88;4.65;;;;;;;11.95;93.78;99980.88;5113019;28;20039;-73
2021/09/20 02:00:20;;;;;;;8.73;5.38;;;;;;;11.85;94.15;99975.31;5112836;28;20065;-75
2021/09/20 02:02:48;;;;;;;9.38;4.90;;;;;;;11.86;94.52;99977.00;5113127;28;20042;-76
2021/09/20 02:05:17;;;;;;;8.18;5.47;;;;;;;11.74;95.05;99975.16;5112651;28;20421;-77
2021/09/20 02:07:46;;;;;;;9.52;5.30;;;;;;;11.68;95.76;99973.78;5112981;28;20391;-75
2021/09/20 02:10:17;;;;;;;9.30;5.32;;;;;;;12.04;93.70;99975.72;5112672;28;20044;-75
2021/09/20 02:12:45;;;;;;;9.45;5.18;;;;;;;12.09;93.23;99966.53;5113012;28;20043;-75
2021/09/20 02:15:15;;;;;;;8.93;4.70;;;;;;;11.97;93.95;99971.81;5112809;28;20044;-75
2021/09/20 02:17:44;;;;;;;8.52;5.05;;;;;;;12.03;93.78;99975.84;5113011;28;20097;-75
2021/09/20 02:20:13;;;;;;;8.68;5.25;;;;;;;11.96;94.21;99972.72;5112439;28;20047;-75
2021/09/20 02:22:42;;;;;;;8.23;5.07;;;;;;;11.88;94.56;99975.13;5112742;28;20040;-79
2021/09/20 02:25:12;;;;;;;9.05;5.22;;;;;;;11.90;94.45;99975.84;5112458;28;20032;-78
2021/09/20 02:27:42;;;;;;;8.77;5.65;;;;;;;11.80;94.67;99980.13;5113049;28;20040;-78
2021/09/20 02:30:11;;;;;;;8.85;5.45;;;;;;;11.80;95.05;99981.94;5112851;28;20056;-77
2021/09/20 02:32:41;;;;;;;8.00;5.45;;;;;;;11.90;93.82;99978.53;5112960;28;20122;-76
2021/09/20 02:35:11;;;;;;;7.25;5.07;;;;;;;11.88;93.39;99980.47;5112692;28;20047;-77
2021/09/20 02:37:39;;;;;;;9.38;5.45;;;;;;;11.92;92.71;99981.09;5112475;28;20505;-78
2021/09/20 02:40:10;;;;;;;8.95;5.63;;;;;;;11.79;92.91;99970.38;5112859;28;20184;-78
2021/09/20 02:42:38;;;;;;;8.93;5.93;;;;;;;11.78;92.45;99963.31;5112638;28;20043;-78
2021/09/20 02:45:08;;;;;;;8.60;5.80;;;;;;;11.74;92.91;99964.47;5112859;28;20044;-75
2021/09/20 02:47:37;;;;;;;11.25;6.22;;;;;;;11.94;91.32;99963.97;5112589;28;20082;-75
2021/09/20 02:50:11;;;;;;;8.45;5.32;;;;;;;11.98;90.12;99970.84;5112484;28;20093;-75
2021/09/20 02:52:40;;;;;;;8.13;5.93;;;;;;;11.83;90.48;99968.38;5114749;28;20035;-76
2021/09/20 02:55:10;;;;;;;9.60;5.80;;;;;;;11.85;90.00;99972.63;5116373;28;20043;-76
2021/09/20 02:57:38;;;;;;;9.35;6.07;;;;;;;11.83;89.83;99966.56;5116113;28;20044;-76
2021/09/20 03:00:09;;;;;;;11.02;5.47;;;;;;;11.79;89.85;99970.38;5116146;28;20482;-80
2021/09/20 03:02:38;;;;;;;9.57;5.90;;;;;;;11.92;89.09;99965.06;5115976;28;20119;-83
2021/09/20 03:05:09;;;;;;;9.50;5.93;;;;;;;11.78;89.48;99966.00;5097818;28;20046;-83
2021/09/20 03:07:37;;;;;;;9.27;6.55;;;;;;;11.68;88.93;99959.59;5116189;28;20039;-83
2021/09/20 03:10:07;;;;;;;10.05;6.50;;;;;;;11.64;89.65;99963.41;5116200;28;20109;-87
2021/09/20 03:12:36;;;;;;;10.10;6.05;;;;;;;11.82;88.71;99969.34;5116487;28;20074;-85
2021/09/20 03:15:05;;;;;;;9.27;6.22;;;;;;;11.71;89.71;99968.22;5116448;28;20040;-87
2021/09/20 03:17:34;;;;;;;11.30;6.45;;;;;;;11.66;89.87;99970.34;5119497;28;20045;-88
2021/09/20 03:20:06;;;;;;;9.88;6.78;;;;;;;11.76;88.93;99978.59;5118831;28;20043;-76
2021/09/20 03:22:36;;;;;;;9.80;6.80;;;;;;;11.69;88.38;99980.00;5115155;28;20047;-77
2021/09/20 03:25:06;;;;;;;9.10;6.72;;;;;;;11.63;88.04;99977.72;5115675;28;20069;-77
2021/09/20 03:27:38;;;;;;;9.68;6.60;;;;;;;11.74;88.13;99972.50;5115579;28;20043;-77
2021/09/20 03:30:08;;;;;;;9.40;6.20;;;;;;;11.68;87.92;99968.47;5115596;28;20051;-76
2021/09/20 03:32:37;;;;;;;9.35;6.20;;;;;;;11.69;88.28;99966.63;5115202;28;20428;-76
2021/09/20 03:35:07;;;;;;;10.02;6.65;;;;;;;11.44;88.50;99965.63;5097292;28;20051;-76
2021/09/20 03:37:37;;;;;;;9.45;6.28;;;;;;;11.38;88.82;99955.34;5115170;28;20459;-77
2021/09/20 03:40:07;;;;;;;9.88;6.65;;;;;;;11.21;89.66;99962.81;5115277;28;20485;-75
2021/09/20 03:42:35;;;;;;;10.00;6.53;;;;;;;11.16;90.00;99966.66;5114986;28;20040;-75
2021/09/20 03:45:04;;;;;;;11.93;7.75;;;;;;;11.13;90.30;99963.34;5115115;28;20040;-72
2021/09/20 03:47:33;;;;;;;11.82;7.25;;;;;;;11.14;90.26;99965.91;5114924;28;20103;-72
2021/09/20 03:50:02;;;;;;;10.85;6.95;;;;;;;11.16;90.05;99969.31;5115074;28;20047;-72
2021/09/20 03:52:30;;;;;;;9.70;6.93;;;;;;;11.22;90.17;99976.06;5114455;28;20059;-72
2021/09/20 03:55:00;;;;;;;10.38;7.30;;;;;;;11.13;90.79;99976.69;5115189;28;20429;-75
2021/09/20 03:57:28;;;;;;;10.57;7.32;;;;;;;11.26;89.75;99988.25;5114631;28;20039;-77
2021/09/20 03:59:56;;;;;;;10.93;7.43;;;;;;;11.26;89.43;99982.91;5114946;28;20070;-77
2021/09/20 04:02:24;;;;;;;10.68;7.35;;;;;;;11.26;89.71;99998.91;5113958;28;20044;-77
2021/09/20 04:04:53;;;;;;;10.70;6.82;;;;;;;11.24;89.67;100000.84;5114790;28;20044;-75
2021/09/20 04:07:21;;;;;;;12.35;7.47;;;;;;;11.35;89.38;99998.31;5114335;28;20069;-75
2021/09/20 04:09:50;;;;;;;10.27;7.15;;;;;;;11.32;90.10;100003.88;5114776;28;20044;-75
2021/09/20 04:12:19;;;;;;;11.07;7.63;;;;;;;11.41;89.93;100002.38;5096304;28;20486;-75
2021/09/20 04:14:47;;;;;;;10.95;7.05;;;;;;;11.41;89.91;100005.91;5114531;28;20147;-75
2021/09/20 04:17:16;;;;;;;11.35;7.47;;;;;;;11.32;90.33;100011.88;5114359;28;20032;-73
2021/09/20 04:19:44;;;;;;;12.68;7.50;;;;;;;11.45;89.58;100019.91;5114680;28;20043;-73
2021/09/20 04:22:12;;;;;;;12.90;7.80;;;;;;;11.36;89.88;100023.19;5114594;28;20051;-73
2021/09/20 04:24:41;;;;;;;12.40;7.93;;;;;;;11.28;90.01;100026.38;5114236;28;20040;-74
2021/09/20 04:27:09;;;;;;;10.65;7.68;;;;;;;11.22;90.86;100025.94;5114304;28;20046;-74
2021/09/20 04:29:39;;;;;;;11.63;7.68;;;;;;;11.31;90.21;100031.53;5113752;28;20052;-75
2021/09/20 04:32:07;;;;;;;11.57;7.88;;;;;;;11.35;89.75;100040.19;5114244;28;20043;-75
2021/09/20 04:34:35;;;;;;;12.13;8.02;;;;;;;11.39;89.46;100037.22;5113830;28;20766;-75
2021/09/20 04:37:06;;;;;;;11.95;7.70;;;;;;;11.41;89.39;100037.97;5114410;28;20092;-75
2021/09/20 04:39:34;;;;;;;10.35;7.07;;;;;;;11.39;89.83;100042.56;5113568;28;20049;-75
2021/09/20 04:42:03;;;;;;;11.50;7.72;;;;;;;11.62;88.70;100037.47;5114025;28;20047;-75
2021/09/20 04:44:31;;;;;;;12.32;7.78;;;;;;;11.62;88.90;100042.81;5113691;28;20039;-75
2021/09/20 04:47:01;;;;;;;10.63;7.82;;;;;;;11.63;89.10;100044.53;5113888;28;20043;-74
2021/09/20 04:49:29;;;;;;;11.43;7.60;;;;;;;11.69;88.61;100036.09;5113739;28;20040;-77
2021/09/20 04:51:57;;;;;;;12.15;7.53;;;;;;;11.49;89.63;100041.94;5115307;28;20490;-74
2021/09/20 04:54:25;;;;;;;12.63;7.38;;;;;;;11.81;88.43;100043.31;5113371;28;20036;-78
2021/09/20 04:56:54;;;;;;;12.88;7.57;;;;;;;11.74;88.57;100050.00;5113692;28;20130;-77
2021/09/20 04:59:22;;;;;;;10.80;6.90;;;;;;;11.90;88.08;100053.38;5113598;28;20048;-77
2021/09/20 05:01:50;;;;;;;9.80;6.80;;;;;;;11.76;88.71;100064.09;5113524;28;20044;-76
2021/09/20 05:04:21;;;;;;;12.23;7.50;;;;;;;11.78;88.55;100069.34;5113073;28;20036;-77
2021/09/20 05:06:49;;;;;;;13.30;7.57;;;;;;;11.76;88.47;100061.41;5113667;28;20097;-76
2021/09/20 05:09:17;;;;;;;12.20;7.45;;;;;;;11.78;88.39;100070.22;5113175;28;20043;-79
2021/09/20 05:11:45;;;;;;;13.23;7.10;;;;;;;11.94;87.71;100070.88;5113430;28;20096;-73
2021/09/20 05:14:14;;;;;;;10.45;7.03;;;;;;;11.95;87.65;100064.56;5112496;28;20060;-75
2021/09/20 05:16:42;;;;;;;10.82;6.95;;;;;;;11.82;88.48;100066.38;5112809;28;20047;-75
2021/09/20 05:19:10;;;;;;;10.25;7.00;;;;;;;11.88;88.42;100073.16;5113328;28;20044;-75
2021/09/20 05:21:40;;;;;;;12.02;7.07;;;;;;;11.86;88.26;100067.88;5113006;28;20398;-75
2021/09/20 05:24:08;;;;;;;12.05;7.47;;;;;;;11.93;87.53;100066.50;5113182;28;20462;-75
2021/09/20 05:26:36;;;;;;;10.57;7.10;;;;;;;11.83;88.45;100068.09;5112968;28;20089;-75
2021/09/20 05:29:04;;;;;;;12.13;7.35;;;;;;;11.93;87.26;100065.66;5113157;28;20055;-74
2021/09/20 05:31:38;;;;;;;11.93;7.78;;;;;;;11.85;87.57;100068.84;5113278;28;20050;-73
2021/09/20 05:34:06;;;;;;;12.90;8.25;;;;;;;11.78;87.88;100080.91;5113096;28;20410;-75
2021/09/20 05:36:34;;;;;;;11.27;7.75;;;;;;;11.91;87.20;100072.94;5112562;28;20039;-72
2021/09/20 05:39:04;;;;;;;11.68;8.23;;;;;;;11.64;87.89;100088.97;5113114;28;20043;-72
2021/09/20 05:41:32;;;;;;;11.75;7.85;;;;;;;11.78;87.23;100077.38;5112865;28;20039;-71
2021/09/20 05:44:01;;;;;;;12.88;8.40;;;;;;;11.77;87.31;100073.81;5112876;28;20126;-71
2021/09/20 05:46:29;;;;;;;11.50;7.82;;;;;;;11.76;87.48;100082.78;5112597;28;20040;-71
2021/09/20 05:48:58;;;;;;;14.07;8.43;;;;;;;11.65;87.26;100075.50;5112806;28;20123;-71
2021/09/20 05:51:26;;;;;;;10.93;7.35;;;;;;;11.86;87.04;100078.56;5093988;28;20097;-74
2021/09/20 05:53:54;;;;;;;12.07;7.75;;;;;;;11.71;87.48;100079.59;5113019;28;20478;-74
2021/09/20 05:56:24;;;;;;;12.77;8.50;;;;;;;11.83;86.97;100078.78;5112372;28;20535;-76
2021/09/20 05:58:52;;;;;;;11.90;7.47;;;;;;;11.94;85.74;100092.28;5112627;28;20040;-75
2021/09/20 06:01:21;;;;;;;11.70;8.02;;;;;;;11.73;87.66;100091.03;5112684;28;20104;-79
2021/09/20 06:03:50;;;;;;;13.05;8.38;;;;;;;11.91;86.68;100094.31;5112639;28;20054;-72
2021/09/20 06:06:18;;;;;;;12.60;8.07;;;;;;;11.95;86.75;100088.63;5112849;28;20155;-77
2021/09/20 06:08:46;;;;;;;13.77;7.78;;;;;;;12.08;85.64;100094.03;5112774;28;20078;-77
2021/09/20 06:11:15;;;;;;;12.40;8.20;;;;;;;11.87;86.77;100091.00;5112933;28;20040;-77
2021/09/20 06:13:45;;;;;;;9.60;7.22;;;;;;;11.97;86.63;100097.44;5112509;28;20044;-74
2021/09/20 06:16:14;;;;;;;12.70;7.65;;;;;;;11.85;87.00;100108.94;5112686;28;20047;-74
2021/09/20 06:18:43;;;;;;;13.35;8.45;;;;;;;11.93;86.61;100101.25;5114436;28;20048;-74
2021/09/20 06:21:13;;;;;;;12.95;7.60;;;;;;;11.82;87.21;100106.47;5113090;28;20035;-74
2021/09/20 06:23:42;;;;;;;12.40;8.00;;;;;;;12.06;85.94;100105.75;5112253;28;20472;-73
2021/09/20 06:26:10;;;;;;;12.82;7.65;;;;;;;11.90;87.35;100112.16;5113677;28;20040;-73
2021/09/20 06:28:38;;;;;;;10.90;7.25;;;;;;;12.02;86.54;100111.31;5116436;28;20051;-77
2021/09/20 06:31:08;;;;;;;11.30;7.43;;;;;;;11.98;87.17;100104.47;5116414;28;20397;-74
2021/09/20 06:33:37;;;;;;;11.43;8.25;;;;;;;12.21;86.15;100107.38;5116537;28;20491;-74
2021/09/20 06:36:06;;;;;;;13.02;8.23;;;;;;;12.31;86.36;100119.16;5116621;28;20040;-74
2021/09/20 06:38:34;;;;;;;15.60;8.45;;;;;;;12.37;86.04;100109.88;5116274;28;20047;-73
2021/09/20 06:41:03;;;;;;;15.18;8.57;;;;;;;12.46;85.24;100119.91;5116538;28;20097;-74
2021/09/20 06:43:31;;;;;;;10.55;7.45;;;;;;;12.59;84.46;100116.25;5116054;28;20119;-75
2021/09/20 06:45:59;;;;;;;15.43;8.23;;;;;;;12.49;84.89;100117.03;5116364;28;20044;-72
2021/09/20 06:48:29;;;;;;;12.70;7.80;;;;;;;12.50;85.26;100116.91;5116277;28;20040;-74
2021/09/20 06:50:58;;;;;;;14.43;8.98;;;;;;;12.52;85.52;100111.44;5116373;28;20118;-74
2021/09/20 06:53:29;;;;;;;13.68;8.23;;;;;;;12.91;84.03;100113.09;5116079;28;20044;-74
2021/09/20 06:55:57;;;;;;;12.50;8.27;;;;;;;13.11;82.80;100117.00;5115926;28;20039;-72
2021/09/20 06:58:25;;;;;;;11.05;7.82;;;;;;;13.16;82.47;100123.75;5115876;28;20040;-73
2021/09/20 07:00:53;;;;;;;15.70;8.60;;;;;;;13.29;81.95;100123.75;5116348;28;20040;-72
2021/09/20 07:03:22;;;;;;;11.45;7.63;;;;;;;13.48;80.41;100120.56;5115699;28;20046;-72
2021/09/20 07:05:52;;;;;;;12.13;7.93;;;;;;;13.30;81.49;100132.63;5115982;28;20122;-72
2021/09/20 07:08:20;;;;;;;11.52;7.75;;;;;;;13.24;81.64;100133.09;5116162;28;20040;-73
2021/09/20 07:10:48;;;;;;;14.07;7.82;;;;;;;12.99;82.71;100134.84;5116070;28;20037;-73
2021/09/20 07:13:17;;;;;;;12.38;8.20;;;;;;;13.06;82.30;100141.47;5115652;28;20067;-73
2021/09/20 07:15:45;;;;;;;15.90;7.85;;;;;;;13.08;82.47;100144.88;5115367;28;20048;-73
2021/09/20 07:18:13;;;;;;;13.32;7.75;;;;;;;13.33;81.51;100151.19;5115281;28;20047;-74
2021/09/20 07:20:44;;;;;;;13.00;7.95;;;;;;;13.06;82.51;100151.31;5114947;28;20122;-76
2021/09/20 07:23:15;;;;;;;13.35;7.45;;;;;;;13.31;81.45;100153.09;5114865;28;20150;-76
2021/09/20 07:25:43;;;;;;;13.30;7.82;;;;;;;13.29;81.51;100147.00;5114664;28;20096;-76
2021/09/20 07:28:12;;;;;;;11.88;7.47;;;;;;;13.06;82.32;100160.22;5115057;28;20486;-75
2021/09/20 07:30:42;;;;;;;11.77;7.43;;;;;;;13.16;82.43;100153.22;5114468;28;20059;-76
2021/09/20 07:33:10;;;;;;;11.00;7.50;;;;;;;13.35;81.72;100165.31;5114890;28;20138;-75
2021/09/20 07:35:39;;;;;;;12.02;8.00;;;;;;;13.64;80.02;100166.69;5114678;28;20073;-75
2021/09/20 07:38:09;;;;;;;12.90;7.75;;;;;;;13.61;80.58;100166.09;5114084;28;20043;-75
2021/09/20 07:40:39;;;;;;;12.30;8.20;;;;;;;13.82;79.23;100171.66;5114924;28;20043;-74
2021/09/20 07:43:08;;;;;;;11.38;8.52;;;;;;;13.88;79.04;100168.50;5114139;28;20047;-75
2021/09/20 07:45:36;;;;;;;11.70;7.70;;;;;;;14.04;78.21;100172.59;5114898;28;20043;-74
2021/09/20 07:48:05;;;;;;;12.32;8.07;;;;;;;14.04;78.23;100183.34;5115156;28;20039;-76
2021/09/20 07:50:34;;;;;;;11.02;8.00;;;;;;;14.13;78.11;100176.41;5114642;28;20040;-75
2021/09/20 07:53:02;;;;;;;12.45;8.30;;;;;;;14.37;77.17;100175.50;5114842;28;20039;-75
2021/09/20 07:55:35;;;;;;;14.00;8.45;;;;;;;14.44;77.66;100172.22;5114772;28;20042;-76
2021/09/20 07:58:06;;;;;;;11.33;7.93;;;;;;;14.52;76.34;100174.34;5115055;28;20058;-74
2021/09/20 08:00:35;;;;;;;12.50;8.88;;;;;;;14.54;76.78;100175.09;5114663;28;20039;-75
2021/09/20 08:03:06;;;;;;;10.73;8.10;;;;;;;14.65;75.99;100182.28;5114850;28;20039;-75
2021/09/20 08:05:35;;;;;;;11.57;7.90;;;;;;;14.60;76.32;100180.84;5114731;28;20180;-75
2021/09/20 08:08:05;;;;;;;13.93;8.27;;;;;;;14.58;76.42;100187.31;5114607;28;20047;-75
2021/09/20 08:10:34;;;;;;;12.65;7.97;;;;;;;14.60;76.62;100188.03;5114319;28;20044;-75
2021/09/20 08:13:08;;;;;;;13.50;8.38;;;;;;;14.63;76.82;100195.00;5114880;28;20067;-75
2021/09/20 08:15:38;;;;;;;11.85;9.23;;;;;;;14.64;76.26;100192.19;5114247;28;20055;-75
2021/09/20 08:18:07;;;;;;;12.45;8.23;;;;;;;14.54;76.95;100197.41;5114667;28;20431;-75
2021/09/20 08:20:35;;;;;;;12.82;7.90;;;;;;;14.50;77.39;100206.69;5114080;28;20097;-75
2021/09/20 08:23:04;;;;;;;11.18;7.45;;;;;;;14.61;76.64;100208.53;5114255;28;20082;-75
2021/09/20 08:25:33;;;;;;;10.60;6.95;;;;;;;14.56;76.78;100208.88;5113948;28;20122;-75
2021/09/20 08:28:02;;;;;;;13.40;7.00;;;;;;;14.50;77.06;100211.19;5114148;28;20547;-75
2021/09/20 08:30:32;;;;;;;13.32;7.50;;;;;;;14.53;77.38;100216.31;5095955;28;20055;-75
2021/09/20 08:33:00;;;;;;;12.95;7.68;;;;;;;14.49;76.71;100215.72;5114447;28;20063;-75
2021/09/20 08:35:29;;;;;;;10.90;7.85;;;;;;;14.39;77.31;100213.81;5113784;28;20040;-75
2021/09/20 08:37:57;;;;;;;11.00;6.95;;;;;;;14.41;77.11;100215.41;5113553;28;20112;-76
2021/09/20 08:40:27;;;;;;;11.10;7.55;;;;;;;14.36;77.54;100214.91;5113406;28;20047;-75
2021/09/20 08:42:57;;;;;;;11.18;7.20;;;;;;;14.39;77.55;100221.88;5113427;28;20138;-76
2021/09/20 08:45:27;;;;;;;13.35;7.82;;;;;;;14.43;77.91;100221.50;5113370;28;20097;-75
2021/09/20 08:47:58;;;;;;;12.23;7.55;;;;;;;14.46;77.47;100215.94;5113056;28;20040;-76
2021/09/20 08:50:29;;;;;;;12.13;7.88;;;;;;;14.47;78.03;100225.69;5113111;28;20047;-75
2021/09/20 08:52:58;;;;;;;11.20;7.45;;;;;;;14.47;77.53;100227.53;5113405;28;20048;-75
2021/09/20 08:55:26;;;;;;;15.30;7.65;;;;;;;14.38;78.04;100233.56;5112575;28;20044;-75
2021/09/20 08:57:55;;;;;;;12.77;7.75;;;;;;;14.37;78.61;100227.34;5112356;28;20043;-75
2021/09/20 09:00:24;;;;;;;11.13;7.65;;;;;;;14.45;77.65;100234.84;5113389;28;20048;-75
2021/09/20 09:02:54;;;;;;;12.38;7.22;;;;;;;14.38;78.29;100239.81;5112886;28;20356;-75
2021/09/20 09:05:27;;;;;;;11.27;7.13;;;;;;;14.36;78.09;100241.72;5113207;28;20039;-75
2021/09/20 09:07:59;;;;;;;12.13;7.33;;;;;;;14.32;78.03;100241.13;5113228;28;20561;-75
2021/09/20 09:10:29;;;;;;;10.98;6.80;;;;;;;14.33;77.52;100234.78;5113876;28;20313;-75
2021/09/20 09:12:58;;;;;;;11.43;6.95;;;;;;;14.41;77.68;100249.44;5113391;28;20039;-76
2021/09/20 09:15:27;;;;;;;16.75;7.18;;;;;;;14.45;77.57;100240.22;5113432;28;20116;-75
2021/09/20 09:17:57;;;;;;;10.45;6.78;;;;;;;14.60;76.77;100244.41;5113014;28;20426;-75
2021/09/20 09:20:29;;;;;;;13.13;7.03;;;;;;;14.57;76.96;100245.50;5113489;28;20075;-76
2021/09/20 09:22:58;;;;;;;11.52;7.38;;;;;;;14.59;76.96;100248.94;5113285;28;20229;-75
2021/09/20 09:25:28;;;;;;;11.38;7.10;;;;;;;14.75;76.32;100245.03;5113201;28;20043;-75
2021/09/20 09:28:01;;;;;;;10.18;6.43;;;;;;;14.93;76.00;100245.44;5112972;28;20073;-75
2021/09/20 09:30:39;;;;;;;10.55;7.25;;;;;;;15.07;75.04;100237.16;5113600;28;20051;-75
2021/09/20 09:33:09;;;;;;;10.50;6.95;;;;;;;15.20;74.37;100240.59;5113092;28;20412;-75
2021/09/20 09:35:43;;;;;;;11.50;7.57;;;;;;;15.27;74.44;100241.81;5112886;28;20097;-75
2021/09/20 09:38:11;;;;;;;10.02;6.97;;;;;;;15.49;73.83;100242.75;5113212;28;20455;-75
2021/09/20 09:40:49;;;;;;;12.10;7.63;;;;;;;15.50;74.38;100237.25;5094446;28;20138;-75
2021/09/20 09:43:25;;;;;;;12.93;7.10;;;;;;;15.61;74.60;100231.91;5113478;28;20089;-75
2021/09/20 09:45:55;;;;;;;11.38;7.18;;;;;;;15.52;74.39;100232.63;5112834;28;20122;-75
2021/09/20 09:48:25;;;;;;;11.77;6.85;;;;;;;15.59;73.96;100235.66;5113089;28;20052;-75
2021/09/20 09:50:57;;;;;;;11.75;7.30;;;;;;;15.70;74.42;100236.53;5112984;28;20531;-75
2021/09/20 09:53:29;;;;;;;10.23;6.80;;;;;;;15.52;74.04;100229.06;5113408;28;20086;-75
2021/09/20 09:56:00;;;;;;;10.70;6.22;;;;;;;15.38;74.07;100230.19;5112695;28;20069;-75
2021/09/20 09:58:28;;;;;;;11.98;6.65;;;;;;;15.51;74.41;100230.06;5113032;28;20123;-75
2021/09/20 10:01:17;;;;;;;10.82;6.60;;;;;;;15.40;73.69;100231.78;5113915;28;20052;-75
2021/09/20 10:04:08;;;;;;;11.35;6.55;;;;;;;15.40;73.81;100231.78;5116678;28;20500;-75
2021/09/20 10:06:55;;;;;;;11.52;6.90;;;;;;;15.48;73.76;100235.69;5117193;28;20130;-76
2021/09/20 10:09:24;;;;;;;10.40;6.80;;;;;;;15.45;73.78;100231.41;5115245;28;20052;-74
2021/09/20 10:11:56;;;;;;;10.73;6.88;;;;;;;15.44;74.14;100221.63;5116739;28;20428;-76
2021/09/20 10:14:25;;;;;;;10.13;6.13;;;;;;;15.56;73.60;100233.25;5116513;28;20063;-74
2021/09/20 10:16:56;;;;;;;11.85;7.10;;;;;;;15.39;73.45;100235.44;5116082;28;20050;-75
2021/09/20 10:19:25;;;;;;;9.90;7.00;;;;;;;15.35;73.98;100236.69;5116355;28;20039;-76
2021/09/20 10:21:55;;;;;;;11.50;7.50;;;;;;;15.45;74.25;100234.09;5114889;28;20039;-76
2021/09/20 10:24:24;;;;;;;10.50;7.05;;;;;;;15.49;73.80;100230.19;5115614;28;20043;-75
2021/09/20 10:26:53;;;;;;;12.23;7.57;;;;;;;15.47;74.30;100229.47;5115782;28;20060;-75
2021/09/20 10:29:22;;;;;;;11.20;7.22;;;;;;;15.50;73.97;100233.72;5115789;28;20055;-75
2021/09/20 10:31:51;;;;;;;13.82;7.47;;;;;;;15.56;73.59;100233.25;5116162;28;20047;-75
2021/09/20 10:34:28;;;;;;;11.27;7.57;;;;;;;15.54;73.56;100235.16;5116295;28;20096;-75
2021/09/20 10:37:06;;;;;;;11.18;7.63;;;;;;;15.65;73.70;100237.91;5115960;28;20054;-76
2021/09/20 10:40:01;;;;;;;10.57;7.38;;;;;;;15.51;74.13;100241.66;5116258;28;20078;-75
2021/09/20 10:42:52;;;;;;;11.77;6.93;;;;;;;15.69;73.11;100228.59;5116063;28;20047;-75
2021/09/20 10:45:49;;;;;;;10.98;6.57;;;;;;;15.52;73.75;100229.06;5115466;28;20486;-75
2021/09/20 10:48:40;;;;;;;12.05;7.63;;;;;;;15.61;73.80;100225.66;5115719;28;20084;-74
2021/09/20 10:51:28;;;;;;;10.48;7.00;;;;;;;15.79;72.98;100229.53;5099607;28;20066;-74
2021/09/20 10:54:20;;;;;;;11.48;6.97;;;;;;;15.76;72.44;100228.94;5115868;28;20069;-75
2021/09/20 10:56:52;;;;;;;12.20;7.20;;;;;;;15.74;71.62;100237.16;5112587;28;20451;-75
2021/09/20 10:59:29;;;;;;;10.30;7.00;;;;;;;15.81;72.23;100232.09;5116266;28;20051;-75
2021/09/20 11:02:04;;;;;;;11.68;6.78;;;;;;;15.95;71.33;100224.63;5115808;28;20047;-75
2021/09/20 11:04:35;;;;;;;9.68;6.93;;;;;;;15.98;70.76;100220.81;5116044;28;20055;-75
2021/09/20 11:07:19;;;;;;;10.55;7.03;;;;;;;16.01;70.10;100231.31;5097401;28;20093;-75
2021/09/20 11:10:08;;;;;;;10.05;6.80;;;;;;;15.97;70.57;100217.28;5114138;28;20051;-75
2021/09/20 11:12:56;;;;;;;9.25;6.45;;;;;;;16.13;70.41;100216.00;5114409;28;20090;-75
2021/09/20 11:15:25;;;;;;;8.77;6.45;;;;;;;16.23;69.44;100227.69;5115938;28;20044;-75
2021/09/20 11:17:53;;;;;;;9.35;6.47;;;;;;;16.18;69.34;100225.38;5097005;28;20058;-75
2021/09/20 11:20:36;;;;;;;9.68;6.05;;;;;;;16.29;68.75;100217.25;5115351;28;20386;-75
2021/09/20 11:23:33;;;;;;;7.60;5.45;;;;;;;16.25;68.22;100214.97;5115244;28;20103;-75
2021/09/20 11:26:09;;;;;;;11.43;5.80;;;;;;;16.50;67.44;100219.97;5115259;28;20047;-75
2021/09/20 11:28:40;;;;;;;9.70;6.10;;;;;;;16.40;67.72;100213.66;5115517;28;20035;-75
2021/09/20 11:31:08;;;;;;;8.80;6.22;;;;;;;16.47;66.95;100214.84;5115416;28;20057;-75
2021/09/20 11:33:39;;;;;;;9.63;5.60;;;;;;;16.57;66.73;100210.38;5115631;28;20043;-75
2021/09/20 11:36:23;;;;;;;8.75;5.85;;;;;;;16.48;66.54;100211.16;5115255;28;20106;-75